Cleveland, OH (44118)

11:50 AM EDT on April 26, 2015 (GMT -0400)
Cleveland Heights | | Change Station
CLOSE
Current Station
Personal Weather Station
Location: Cleveland, OH
Elevation: 994 ft
Nearby Weather Stations

Elev 994 ft 41.49 °N, 81.56 °W | Updated 15 seconds ago

Clear
Clear
50.5 °F
Feels Like 50.5 °F
N
4.0
Wind Variable Wind from North
Gusts 4.9 mph

Today
High -- | Low -- °F
--% Chance of Precip.
Yesterday
High -- | Low -- °F
Precip. -- in
6:30 AM 8:18 PM
First Quarter, 56% visible
Pressure 29.87 in
Visibility 10.0 miles
Clouds Clear
Dew Point 37 °F
Humidity 60%
Rainfall 0.00 in
Snow Depth Not available.
UV 7 out of 12
Pollen 8.90 out of 12
Air Quality Not available.
Flu Activity Regional
METAR KBKL 261453Z 02010KT 10SM CLR 07/02 A2986 RMK AO2 SLP115 T00670022 53007

More Conditions Fewer Conditions

Pressure 29.87 in
Visibility 10.0 miles
Clouds Clear
Dew Point 37 °F
Humidity 60%
Rainfall 0.00 in
Snow Depth Not available.
UV 7 out of 12
Pollen 8.90 out of 12
Air Quality Not available.
Flu Activity Regional
METAR KBKL 261453Z 02010KT 10SM CLR 07/02 A2986 RMK AO2 SLP115 T00670022 53007

More Conditions Fewer Conditions

The full scope of the disaster following a powerful 7.8-magnitude earthquake in Nepal may not come into view for days, but global charities are already sending emergency aid. Click to see how you can help.

10-Day Weather Forecast

Almanac

Astronomy

Apr. 26, 2015 Rise Set
Actual Time
Civil Twilight
Nautical Twilight
Astronomical Twilight
Moon
Length of Visible Light
Length of Day
Tomorrow will be .
, % of the Moon is Illuminated

Today's Extremes

State Highs State Lows

Community

WunderPhotos

Upload Photos

1,817,043 photos uploaded!

WunderBlogs® & News

Nearby

Air Quality

  Air Quality AQ Index Pollutant
Not available.

Snow Depth

Station Depth Elevation

Earthquake Activity

City Distance Mag. Time & Date
Minimum magnitude displayed is 2.5.

Coastal Water Temperatures

Place Temperature

Stations

Nearby Weather Stations

Station Location Temp. Windchill Dew Point Humidity Wind Precip. Elev Updated Type